Time;durP1;ratioP1;P1;durP2;ratioP2;P2;SDS_P1;SDS_P2;PMS_P1;PMS_P2;Temp;Humidity;BMP_temperature;BMP_pressure;BME280_temperature;BME280_humidity;BME280_pressure;Samples;Min_cycle;Max_cycle;Signal;HPM_P1;HPM_P2
2024/02/06 00:00:40;;;;;;;9.50;6.30;;;;;;;7.39;100.00;98452.83;437419;1264;139678;-62
2024/02/06 00:10:46;;;;;;;8.70;5.10;;;;;;;7.38;100.00;98449.89;433301;1263;139351;-62
2024/02/06 00:20:53;;;;;;;11.00;5.40;;;;;;;7.39;100.00;98453.34;433796;1262;139069;-63
2024/02/06 00:30:59;;;;;;;10.90;5.60;;;;;;;7.40;100.00;98454.33;438812;1265;139240;-62
2024/02/06 00:41:06;;;;;;;11.70;5.90;;;;;;;7.40;100.00;98454.85;436823;1265;139695;-62
2024/02/06 00:51:12;;;;;;;8.00;4.30;;;;;;;7.38;100.00;98447.44;439479;1262;140410;-63
2024/02/06 01:01:18;;;;;;;11.10;6.10;;;;;;;7.35;100.00;98444.92;435231;1265;139012;-52
2024/02/06 01:11:25;;;;;;;7.30;4.70;;;;;;;7.31;100.00;98456.33;434488;1260;138974;-50
2024/02/06 01:21:31;;;;;;;9.20;5.00;;;;;;;7.26;100.00;98447.27;434021;1262;138974;-61
2024/02/06 01:31:37;;;;;;;10.10;5.70;;;;;;;7.22;100.00;98456.38;433617;1261;139155;-62
2024/02/06 01:41:43;;;;;;;9.70;5.50;;;;;;;7.18;100.00;98455.27;436958;1262;139256;-61
2024/02/06 01:51:50;;;;;;;13.60;5.60;;;;;;;7.13;100.00;98458.03;433584;1265;140297;-61
2024/02/06 02:01:57;;;;;;;8.40;5.20;;;;;;;7.06;100.00;98465.67;436739;1265;139345;-62
2024/02/06 02:12:04;;;;;;;8.80;5.50;;;;;;;6.92;100.00;98466.03;440995;1265;139398;-61
2024/02/06 02:22:10;;;;;;;9.00;5.40;;;;;;;6.74;100.00;98464.46;435842;1265;139168;-63
2024/02/06 02:32:18;;;;;;;12.90;7.90;;;;;;;6.59;100.00;98464.22;437458;1262;139754;-62
2024/02/06 02:42:24;;;;;;;11.70;7.80;;;;;;;6.43;100.00;98459.14;435096;1263;139889;-62
2024/02/06 02:52:30;;;;;;;13.20;8.60;;;;;;;6.32;100.00;98464.03;435384;1264;139688;-62
2024/02/06 03:02:36;;;;;;;9.50;8.40;;;;;;;6.22;100.00;98455.67;433607;1263;140359;-62
2024/02/06 03:12:43;;;;;;;20.50;10.80;;;;;;;6.14;100.00;98457.52;434500;1265;139220;-60
2024/02/06 03:22:50;;;;;;;13.00;10.00;;;;;;;6.06;100.00;98448.67;434413;1261;139932;-61
2024/02/06 03:33:01;;;;;;;13.10;9.90;;;;;;;5.98;100.00;98449.10;440510;1261;139970;-62
2024/02/06 03:43:07;;;;;;;12.00;9.40;;;;;;;5.99;100.00;98446.83;435669;1263;139920;-62
2024/02/06 03:53:13;;;;;;;14.30;9.30;;;;;;;5.96;100.00;98436.55;434243;1265;139281;-61
2024/02/06 04:03:19;;;;;;;14.20;8.40;;;;;;;5.93;100.00;98434.02;436171;1265;139405;-61
2024/02/06 04:13:25;;;;;;;13.10;10.40;;;;;;;5.87;100.00;98426.34;435005;1260;139743;-61
2024/02/06 04:23:32;;;;;;;15.10;8.30;;;;;;;5.83;100.00;98420.88;435819;1265;140496;-61
2024/02/06 04:33:39;;;;;;;9.40;6.20;;;;;;;5.83;100.00;98423.52;435321;1261;139816;-59
2024/02/06 04:43:45;;;;;;;9.40;5.50;;;;;;;5.85;100.00;98419.03;441108;1261;139100;-61
2024/02/06 04:53:51;;;;;;;11.60;8.30;;;;;;;5.88;100.00;98395.20;438457;1264;138831;-48
2024/02/06 05:03:57;;;;;;;15.10;7.80;;;;;;;5.91;100.00;98384.06;433898;1261;140587;-51
2024/02/06 05:14:03;;;;;;;10.10;6.70;;;;;;;5.96;100.00;98384.64;434390;1264;139354;-50
2024/02/06 05:24:10;;;;;;;11.00;6.30;;;;;;;6.00;100.00;98371.85;433970;1264;139380;-48
2024/02/06 05:34:17;;;;;;;11.90;6.40;;;;;;;6.07;100.00;98362.07;433690;1264;139349;-51
2024/02/06 05:44:23;;;;;;;6.10;5.30;;;;;;;6.15;100.00;98371.95;434424;1264;139686;-49
2024/02/06 05:54:33;;;;;;;5.60;4.10;;;;;;;6.23;100.00;98369.05;437729;1261;139497;-51
2024/02/06 06:04:39;;;;;;;5.50;3.70;;;;;;;6.30;100.00;98363.56;435036;1260;138813;-60
2024/02/06 06:14:46;;;;;;;6.40;3.40;;;;;;;6.37;100.00;98360.33;436643;1264;139186;-61
2024/02/06 06:24:52;;;;;;;4.50;3.20;;;;;;;6.41;100.00;98375.34;435509;1261;139633;-61
2024/02/06 06:34:58;;;;;;;7.20;3.20;;;;;;;6.43;100.00;98381.79;430470;1260;5109832;-61
2024/02/06 06:45:06;;;;;;;4.80;2.60;;;;;;;6.46;100.00;98374.80;436028;1261;140940;-50
2024/02/06 06:55:14;;;;;;;3.70;2.80;;;;;;;6.52;100.00;98389.74;435135;1264;139061;-49
2024/02/06 07:05:22;;;;;;;5.60;3.30;;;;;;;6.56;100.00;98397.83;443511;1260;140130;-50
2024/02/06 07:15:29;;;;;;;2.40;2.20;;;;;;;6.57;100.00;98399.13;439472;1260;139212;-52
2024/02/06 07:25:35;;;;;;;5.00;3.60;;;;;;;6.59;100.00;98388.92;434637;1261;139325;-65
2024/02/06 07:35:41;;;;;;;6.00;2.50;;;;;;;6.61;100.00;98385.85;436829;1263;140598;-82
2024/02/06 07:45:47;;;;;;;6.40;3.50;;;;;;;6.63;100.00;98393.54;435704;1260;138782;-69
2024/02/06 07:55:53;;;;;;;4.30;3.10;;;;;;;6.66;100.00;98402.23;439692;1260;139079;-70
2024/02/06 08:05:59;;;;;;;5.00;2.70;;;;;;;6.66;100.00;98407.05;435045;1260;182859;-70
2024/02/06 08:16:06;;;;;;;4.10;3.00;;;;;;;6.55;100.00;98409.87;435005;1262;140168;-67
2024/02/06 08:26:13;;;;;;;8.60;4.70;;;;;;;6.45;100.00;98411.20;436154;1264;139724;-69
2024/02/06 08:36:19;;;;;;;4.80;2.30;;;;;;;6.40;100.00;98411.05;436780;1260;139169;-60
2024/02/06 08:46:27;;;;;;;5.20;2.90;;;;;;;6.34;100.00;98402.92;435850;1261;141466;-59
2024/02/06 08:56:35;;;;;;;7.00;4.20;;;;;;;6.44;100.00;98399.29;434709;1260;140090;-57
2024/02/06 09:06:41;;;;;;;5.40;2.90;;;;;;;6.65;100.00;98396.55;434562;1262;140413;-60
2024/02/06 09:16:47;;;;;;;3.90;2.70;;;;;;;6.73;100.00;98393.21;449155;1259;139316;-60
2024/02/06 09:26:54;;;;;;;4.40;3.70;;;;;;;6.68;100.00;98396.84;442009;1260;140317;-47
2024/02/06 09:37:00;;;;;;;8.00;4.60;;;;;;;6.59;100.00;98392.05;435985;1260;138835;-54
2024/02/06 09:47:08;;;;;;;5.20;4.00;;;;;;;6.47;100.00;98398.05;435083;1264;139290;-58
2024/02/06 09:57:20;;;;;;;8.10;4.50;;;;;;;6.39;100.00;98403.05;436772;1260;139615;-66
2024/02/06 10:07:27;;;;;;;5.40;4.40;;;;;;;6.31;100.00;98397.35;438462;1261;141274;-66
2024/02/06 10:17:33;;;;;;;6.60;3.80;;;;;;;6.28;100.00;98396.49;441093;1259;139358;-68
2024/02/06 10:27:40;;;;;;;6.40;4.10;;;;;;;6.23;100.00;98398.90;434880;1263;140264;-62
2024/02/06 10:37:46;;;;;;;3.70;3.40;;;;;;;6.20;100.00;98397.27;436939;1259;139708;-58
2024/02/06 10:48:00;;;;;;;4.90;3.40;;;;;;;6.24;100.00;98394.53;437066;1261;139035;-58
2024/02/06 10:58:08;;;;;;;4.50;3.40;;;;;;;6.31;100.00;98385.55;434506;1259;139814;-57
2024/02/06 11:08:19;;;;;;;4.50;3.30;;;;;;;6.34;100.00;98375.96;438799;1258;139181;-70
2024/02/06 11:18:30;;;;;;;5.10;3.10;;;;;;;6.34;100.00;98363.10;436017;1263;139120;-64
2024/02/06 11:28:37;;;;;;;7.50;3.70;;;;;;;6.36;100.00;98352.93;443401;1259;140192;-65
2024/02/06 11:38:44;;;;;;;6.80;3.50;;;;;;;6.47;100.00;98350.45;434915;1262;141553;-63
2024/02/06 11:48:51;;;;;;;6.50;3.00;;;;;;;6.57;100.00;98345.96;436204;1259;139697;-67
2024/02/06 11:58:57;;;;;;;8.90;4.60;;;;;;;6.68;100.00;98338.25;436963;1261;139579;-62
2024/02/06 12:09:06;;;;;;;8.60;5.10;;;;;;;6.93;100.00;98326.34;436078;1260;139547;-69
2024/02/06 12:19:12;;;;;;;4.80;2.90;;;;;;;7.11;100.00;98312.17;441199;1261;139587;-60
2024/02/06 12:29:19;;;;;;;4.40;2.00;;;;;;;7.21;100.00;98312.55;435032;1262;139652;-64
2024/02/06 12:39:25;;;;;;;7.50;3.00;;;;;;;7.18;100.00;98301.79;438744;1259;140365;-64
2024/02/06 12:49:31;;;;;;;4.00;3.20;;;;;;;7.11;100.00;98297.40;439853;1260;139520;-58
2024/02/06 12:59:38;;;;;;;3.60;2.20;;;;;;;7.08;100.00;98295.34;434784;1261;139305;-66
2024/02/06 13:09:44;;;;;;;3.50;2.10;;;;;;;7.07;100.00;98289.52;436965;1260;143311;-56
2024/02/06 13:19:51;;;;;;;3.90;2.90;;;;;;;7.03;100.00;98279.17;437583;1263;139365;-78
2024/02/06 13:29:58;;;;;;;7.70;2.60;;;;;;;6.99;100.00;98277.88;436278;1259;140225;-58
2024/02/06 13:40:05;;;;;;;5.00;2.60;;;;;;;6.98;100.00;98268.01;435088;1259;139737;-58
2024/02/06 13:50:12;;;;;;;9.40;4.20;;;;;;;7.08;100.00;98266.43;447570;1260;139815;-58
2024/02/06 14:00:18;;;;;;;8.50;3.80;;;;;;;7.25;100.00;98261.27;434699;1263;139152;-67
2024/02/06 14:10:25;;;;;;;4.00;2.40;;;;;;;7.38;100.00;98248.49;434607;1260;140008;-70
2024/02/06 14:20:31;;;;;;;;;;;;;;;7.43;100.00;98242.55;435024;1261;139494;-69
2024/02/06 14:30:39;;;;;;;6.00;2.60;;;;;;;7.46;100.00;98228.46;437704;1261;126058;-73
2024/02/06 14:40:44;;;;;;;;;;;;;;;7.42;100.00;98215.44;435620;1263;139430;-73
2024/02/06 14:50:55;;;;;;;2.40;2.10;;;;;;;7.34;100.00;98215.21;438882;1263;127288;-68
2024/02/06 15:01:01;;;;;;;4.60;2.40;;;;;;;7.27;100.00;98217.03;434938;1261;140037;-74
2024/02/06 15:11:07;;;;;;;3.40;2.70;;;;;;;7.20;100.00;98199.46;434810;1261;139164;-67
2024/02/06 15:21:13;;;;;;;4.50;2.50;;;;;;;7.11;100.00;98186.20;441013;1263;140478;-68
2024/02/06 15:31:20;;;;;;;3.10;1.90;;;;;;;7.06;100.00;98167.03;435754;1259;139924;-64
2024/02/06 15:41:26;;;;;;;4.40;2.10;;;;;;;7.06;100.00;98163.91;436779;1259;140746;-58
2024/02/06 15:51:37;;;;;;;5.10;2.50;;;;;;;7.06;100.00;98157.98;441089;1260;140281;-52
2024/02/06 16:01:49;;;;;;;3.90;2.70;;;;;;;7.09;100.00;98154.31;438354;1262;140051;-66
2024/02/06 16:11:55;;;;;;;6.30;2.90;;;;;;;7.09;100.00;98139.70;439490;1258;139338;-83
2024/02/06 16:22:02;;;;;;;3.30;2.50;;;;;;;7.08;100.00;98136.43;449321;1259;140190;-65
2024/02/06 16:32:09;;;;;;;5.30;3.30;;;;;;;7.10;100.00;98131.45;440167;1260;139707;-70
2024/02/06 16:42:16;;;;;;;8.40;3.00;;;;;;;7.11;100.00;98130.70;434753;1259;139159;-73
2024/02/06 16:52:22;;;;;;;7.20;3.00;;;;;;;7.08;100.00;98132.77;437308;1263;139793;-64
2024/02/06 17:02:29;;;;;;;7.50;3.80;;;;;;;7.05;100.00;98125.55;435258;1259;139773;-63
2024/02/06 17:12:35;;;;;;;5.40;4.20;;;;;;;6.96;100.00;98110.91;439356;1262;139642;-63
2024/02/06 17:22:43;;;;;;;4.80;3.30;;;;;;;6.88;100.00;98106.41;434461;1263;140119;-61
2024/02/06 17:32:49;;;;;;;7.40;5.10;;;;;;;6.82;100.00;98100.95;434619;1259;141342;-57
2024/02/06 17:42:55;;;;;;;8.70;4.50;;;;;;;6.78;100.00;98088.35;448624;1261;139841;-54
2024/02/06 17:53:01;;;;;;;5.30;4.00;;;;;;;6.78;100.00;98080.14;435928;1263;138976;-56
2024/02/06 18:03:08;;;;;;;24.30;5.80;;;;;;;6.78;100.00;98076.52;435155;1259;139307;-55
2024/02/06 18:13:14;;;;;;;10.30;4.90;;;;;;;6.75;100.00;98062.95;440328;1259;139770;-65
2024/02/06 18:23:20;;;;;;;6.60;3.50;;;;;;;6.70;100.00;98053.40;435101;1265;139284;-65
2024/02/06 18:33:27;;;;;;;5.60;3.60;;;;;;;6.67;100.00;98048.27;436429;1262;139235;-55
2024/02/06 18:43:36;;;;;;;9.40;5.10;;;;;;;6.67;100.00;98029.66;442822;1262;5210113;-57
2024/02/06 18:53:42;;;;;;;5.60;4.20;;;;;;;6.68;100.00;98014.92;436328;1263;140197;-51
2024/02/06 19:03:49;;;;;;;6.80;3.40;;;;;;;6.69;100.00;98000.14;436383;1261;141071;-53
2024/02/06 19:13:56;;;;;;;5.60;3.70;;;;;;;6.68;100.00;97990.79;439806;1262;139333;-52
2024/02/06 19:24:02;;;;;;;5.10;3.20;;;;;;;6.69;100.00;97984.10;447113;1259;139487;-53
2024/02/06 19:34:10;;;;;;;5.00;2.80;;;;;;;6.71;100.00;97989.34;436672;1263;139627;-54
2024/02/06 19:44:16;;;;;;;3.80;2.90;;;;;;;6.71;100.00;97978.02;434798;1260;138723;-66
2024/02/06 19:54:22;;;;;;;10.70;5.80;;;;;;;6.71;100.00;97970.58;436730;1259;139455;-66
2024/02/06 20:04:28;;;;;;;5.70;3.20;;;;;;;6.73;100.00;97968.69;434633;1263;139126;-66
2024/02/06 20:14:35;;;;;;;3.50;2.50;;;;;;;6.75;100.00;97959.89;435483;1260;139188;-66
2024/02/06 20:24:43;;;;;;;4.50;3.20;;;;;;;6.79;100.00;97952.64;436011;1262;139247;-65
2024/02/06 20:34:49;;;;;;;3.00;2.60;;;;;;;6.85;100.00;97948.13;437420;1262;139902;-65
2024/02/06 20:44:56;;;;;;;5.40;2.40;;;;;;;6.90;100.00;97926.05;438741;1260;139806;-66
2024/02/06 20:55:01;;;;;;;3.70;2.70;;;;;;;6.98;100.00;97912.58;448349;1262;138850;-65
2024/02/06 21:05:09;;;;;;;4.10;3.10;;;;;;;7.06;100.00;97902.77;434406;1263;139490;-63
2024/02/06 21:15:14;;;;;;;;;;;;;;;7.11;100.00;97885.50;434433;1262;139031;-65
2024/02/06 21:25:20;;;;;;;4.00;2.50;;;;;;;7.14;100.00;97871.86;442732;1260;126136;-50
2024/02/06 21:35:26;;;;;;;4.00;2.40;;;;;;;7.20;100.00;97856.62;438868;1259;141548;-51
2024/02/06 21:45:33;;;;;;;4.10;2.40;;;;;;;7.22;100.00;97845.29;441447;1262;139201;-67
2024/02/06 21:55:38;;;;;;;4.00;2.70;;;;;;;7.23;100.00;97827.68;439013;1263;139416;-65
2024/02/06 22:05:47;;;;;;;4.40;2.40;;;;;;;7.20;100.00;97825.67;435532;1264;139244;-65
2024/02/06 22:15:53;;;;;;;4.40;2.90;;;;;;;7.14;100.00;97820.66;435843;1263;139284;-66
2024/02/06 22:25:59;;;;;;;3.70;2.20;;;;;;;7.08;100.00;97809.20;435973;1263;139669;-65
2024/02/06 22:36:07;;;;;;;4.60;3.00;;;;;;;7.06;100.00;97801.68;444592;1263;139214;-66
2024/02/06 22:46:13;;;;;;;2.30;2.10;;;;;;;7.13;100.00;97790.83;439532;1263;139355;-65
2024/02/06 22:56:19;;;;;;;4.30;1.90;;;;;;;7.25;100.00;97778.80;443665;1259;139119;-65
2024/02/06 23:06:26;;;;;;;3.80;2.70;;;;;;;7.33;100.00;97771.00;437339;1263;139506;-64
2024/02/06 23:16:32;;;;;;;2.60;1.90;;;;;;;7.36;100.00;97759.28;440354;1263;139665;-66
2024/02/06 23:26:38;;;;;;;5.40;3.00;;;;;;;7.39;100.00;97751.38;435727;1264;140639;-65
2024/02/06 23:36:44;;;;;;;5.00;2.40;;;;;;;7.42;100.00;97743.81;437231;1261;139896;-66
2024/02/06 23:46:50;;;;;;;2.50;1.60;;;;;;;7.41;100.00;97736.73;440030;1260;139327;-65
2024/02/06 23:56:57;;;;;;;5.70;1.90;;;;;;;7.41;100.00;97730.85;437858;1259;139222;-66
